sensor_id;sensor_type;location;lat;lon;timestamp;P1;durP1;ratioP1;P2;durP2;ratioP2
41099;SDS011;26844;53.686;-6.346;2022-08-02T00:00:44;37.25;;;34.85;;
41099;SDS011;26844;53.686;-6.346;2022-08-02T00:03:09;52.33;;;49.58;;
41099;SDS011;26844;53.686;-6.346;2022-08-02T00:05:35;24.73;;;23.23;;
41099;SDS011;26844;53.686;-6.346;2022-08-02T00:08:00;98.63;;;93.65;;
41099;SDS011;26844;53.686;-6.346;2022-08-02T00:10:25;80.25;;;75.88;;
41099;SDS011;26844;53.686;-6.346;2022-08-02T00:12:51;88.93;;;83.97;;
41099;SDS011;26844;53.686;-6.346;2022-08-02T00:15:16;104.90;;;99.22;;
41099;SDS011;26844;53.686;-6.346;2022-08-02T00:17:42;63.08;;;59.85;;
41099;SDS011;26844;53.686;-6.346;2022-08-02T00:20:07;54.60;;;52.03;;
41099;SDS011;26844;53.686;-6.346;2022-08-02T00:22:32;40.17;;;38.17;;
41099;SDS011;26844;53.686;-6.346;2022-08-02T00:24:58;54.22;;;51.35;;
41099;SDS011;26844;53.686;-6.346;2022-08-02T00:27:23;18.02;;;16.85;;
41099;SDS011;26844;53.686;-6.346;2022-08-02T00:29:48;83.60;;;79.43;;
41099;SDS011;26844;53.686;-6.346;2022-08-02T00:32:16;43.15;;;40.83;;
41099;SDS011;26844;53.686;-6.346;2022-08-02T00:34:41;25.55;;;24.27;;
41099;SDS011;26844;53.686;-6.346;2022-08-02T00:37:06;41.35;;;39.28;;
41099;SDS011;26844;53.686;-6.346;2022-08-02T00:39:31;24.58;;;23.17;;
41099;SDS011;26844;53.686;-6.346;2022-08-02T00:41:57;24.30;;;22.88;;
41099;SDS011;26844;53.686;-6.346;2022-08-02T00:44:22;44.67;;;42.28;;
41099;SDS011;26844;53.686;-6.346;2022-08-02T00:46:47;63.53;;;59.97;;
41099;SDS011;26844;53.686;-6.346;2022-08-02T00:49:12;49.45;;;46.80;;
41099;SDS011;26844;53.686;-6.346;2022-08-02T00:51:39;37.13;;;35.33;;
41099;SDS011;26844;53.686;-6.346;2022-08-02T00:54:05;91.60;;;86.75;;
41099;SDS011;26844;53.686;-6.346;2022-08-02T00:56:30;42.67;;;40.58;;
41099;SDS011;26844;53.686;-6.346;2022-08-02T00:58:56;43.75;;;41.25;;
41099;SDS011;26844;53.686;-6.346;2022-08-02T01:01:21;38.33;;;36.47;;
41099;SDS011;26844;53.686;-6.346;2022-08-02T01:04:03;15.57;;;14.60;;
41099;SDS011;26844;53.686;-6.346;2022-08-02T01:06:28;21.60;;;20.50;;
41099;SDS011;26844;53.686;-6.346;2022-08-02T01:08:57;9.80;;;9.27;;
41099;SDS011;26844;53.686;-6.346;2022-08-02T01:11:22;29.63;;;28.08;;
41099;SDS011;26844;53.686;-6.346;2022-08-02T01:13:47;41.88;;;39.85;;
41099;SDS011;26844;53.686;-6.346;2022-08-02T01:16:14;25.25;;;23.92;;
41099;SDS011;26844;53.686;-6.346;2022-08-02T01:18:44;23.13;;;21.90;;
41099;SDS011;26844;53.686;-6.346;2022-08-02T01:31:14;82.10;;;78.17;;
41099;SDS011;26844;53.686;-6.346;2022-08-02T01:33:41;80.78;;;76.72;;
41099;SDS011;26844;53.686;-6.346;2022-08-02T01:36:08;83.43;;;79.15;;
41099;SDS011;26844;53.686;-6.346;2022-08-02T01:38:39;113.70;;;107.50;;
41099;SDS011;26844;53.686;-6.346;2022-08-02T01:41:06;9.50;;;8.70;;
41099;SDS011;26844;53.686;-6.346;2022-08-02T01:43:33;92.70;;;87.75;;
41099;SDS011;26844;53.686;-6.346;2022-08-02T01:45:59;74.03;;;69.90;;
41099;SDS011;26844;53.686;-6.346;2022-08-02T01:48:25;34.10;;;32.10;;
41099;SDS011;26844;53.686;-6.346;2022-08-02T01:50:51;47.28;;;45.03;;
41099;SDS011;26844;53.686;-6.346;2022-08-02T01:53:17;100.00;;;94.72;;
41099;SDS011;26844;53.686;-6.346;2022-08-02T01:55:43;60.25;;;57.50;;
41099;SDS011;26844;53.686;-6.346;2022-08-02T01:58:09;79.03;;;74.95;;
41099;SDS011;26844;53.686;-6.346;2022-08-02T02:00:38;50.72;;;47.80;;
41099;SDS011;26844;53.686;-6.346;2022-08-02T02:03:04;36.97;;;35.22;;
41099;SDS011;26844;53.686;-6.346;2022-08-02T02:05:30;50.15;;;47.88;;
41099;SDS011;26844;53.686;-6.346;2022-08-02T02:07:56;59.22;;;56.17;;
41099;SDS011;26844;53.686;-6.346;2022-08-02T02:10:27;41.63;;;39.47;;
41099;SDS011;26844;53.686;-6.346;2022-08-02T02:12:54;89.90;;;85.47;;
41099;SDS011;26844;53.686;-6.346;2022-08-02T02:15:20;71.75;;;68.53;;
41099;SDS011;26844;53.686;-6.346;2022-08-02T02:17:45;68.78;;;65.63;;
41099;SDS011;26844;53.686;-6.346;2022-08-02T02:20:12;65.15;;;62.05;;
41099;SDS011;26844;53.686;-6.346;2022-08-02T02:22:38;28.48;;;27.02;;
41099;SDS011;26844;53.686;-6.346;2022-08-02T02:25:04;36.75;;;35.05;;
41099;SDS011;26844;53.686;-6.346;2022-08-02T02:27:29;32.40;;;30.70;;
41099;SDS011;26844;53.686;-6.346;2022-08-02T02:29:55;28.52;;;26.98;;
41099;SDS011;26844;53.686;-6.346;2022-08-02T02:32:20;47.60;;;45.45;;
41099;SDS011;26844;53.686;-6.346;2022-08-02T02:34:47;41.42;;;39.55;;
41099;SDS011;26844;53.686;-6.346;2022-08-02T02:37:21;53.40;;;50.75;;
41099;SDS011;26844;53.686;-6.346;2022-08-02T02:39:47;66.47;;;63.22;;
41099;SDS011;26844;53.686;-6.346;2022-08-02T02:42:14;47.28;;;44.83;;
41099;SDS011;26844;53.686;-6.346;2022-08-02T02:44:40;47.67;;;45.42;;
41099;SDS011;26844;53.686;-6.346;2022-08-02T02:47:06;51.25;;;48.92;;
41099;SDS011;26844;53.686;-6.346;2022-08-02T02:49:33;37.03;;;35.17;;
41099;SDS011;26844;53.686;-6.346;2022-08-02T02:51:59;40.75;;;38.75;;
41099;SDS011;26844;53.686;-6.346;2022-08-02T02:54:24;33.38;;;31.92;;
41099;SDS011;26844;53.686;-6.346;2022-08-02T02:56:50;31.50;;;29.92;;
41099;SDS011;26844;53.686;-6.346;2022-08-02T02:59:16;46.47;;;44.33;;
41099;SDS011;26844;53.686;-6.346;2022-08-02T03:01:41;30.40;;;28.88;;
41099;SDS011;26844;53.686;-6.346;2022-08-02T03:04:08;23.02;;;21.92;;
41099;SDS011;26844;53.686;-6.346;2022-08-02T03:06:37;25.55;;;24.38;;
41099;SDS011;26844;53.686;-6.346;2022-08-02T03:09:03;35.10;;;33.50;;
41099;SDS011;26844;53.686;-6.346;2022-08-02T03:11:29;22.73;;;21.73;;
41099;SDS011;26844;53.686;-6.346;2022-08-02T03:13:56;18.75;;;17.63;;
41099;SDS011;26844;53.686;-6.346;2022-08-02T03:16:21;23.08;;;22.08;;
41099;SDS011;26844;53.686;-6.346;2022-08-02T03:18:47;24.40;;;23.15;;
41099;SDS011;26844;53.686;-6.346;2022-08-02T03:21:12;31.90;;;30.45;;
41099;SDS011;26844;53.686;-6.346;2022-08-02T03:23:38;29.67;;;28.30;;
41099;SDS011;26844;53.686;-6.346;2022-08-02T03:26:04;35.88;;;34.15;;
41099;SDS011;26844;53.686;-6.346;2022-08-02T03:28:29;43.58;;;41.60;;
41099;SDS011;26844;53.686;-6.346;2022-08-02T03:30:55;44.67;;;42.63;;
41099;SDS011;26844;53.686;-6.346;2022-08-02T03:33:20;27.75;;;26.58;;
41099;SDS011;26844;53.686;-6.346;2022-08-02T03:35:46;20.10;;;18.80;;
41099;SDS011;26844;53.686;-6.346;2022-08-02T03:38:12;33.67;;;32.17;;
41099;SDS011;26844;53.686;-6.346;2022-08-02T03:40:38;34.75;;;33.22;;
41099;SDS011;26844;53.686;-6.346;2022-08-02T03:43:04;38.90;;;36.85;;
41099;SDS011;26844;53.686;-6.346;2022-08-02T03:45:29;30.77;;;29.33;;
41099;SDS011;26844;53.686;-6.346;2022-08-02T03:47:55;23.10;;;22.00;;
41099;SDS011;26844;53.686;-6.346;2022-08-02T03:50:20;18.88;;;18.08;;
41099;SDS011;26844;53.686;-6.346;2022-08-02T03:52:49;14.95;;;14.13;;
41099;SDS011;26844;53.686;-6.346;2022-08-02T03:55:15;20.02;;;18.98;;
41099;SDS011;26844;53.686;-6.346;2022-08-02T03:57:40;40.90;;;38.90;;
41099;SDS011;26844;53.686;-6.346;2022-08-02T04:00:07;45.63;;;43.42;;
41099;SDS011;26844;53.686;-6.346;2022-08-02T04:02:32;70.50;;;67.27;;
41099;SDS011;26844;53.686;-6.346;2022-08-02T04:04:58;36.28;;;34.55;;
41099;SDS011;26844;53.686;-6.346;2022-08-02T04:07:23;25.42;;;24.23;;
41099;SDS011;26844;53.686;-6.346;2022-08-02T04:09:48;63.15;;;60.17;;
41099;SDS011;26844;53.686;-6.346;2022-08-02T04:12:14;22.50;;;21.48;;
41099;SDS011;26844;53.686;-6.346;2022-08-02T04:14:39;47.78;;;45.30;;
41099;SDS011;26844;53.686;-6.346;2022-08-02T04:17:06;23.25;;;22.25;;
41099;SDS011;26844;53.686;-6.346;2022-08-02T04:19:42;61.50;;;58.22;;
41099;SDS011;26844;53.686;-6.346;2022-08-02T04:22:11;8.65;;;8.18;;
41099;SDS011;26844;53.686;-6.346;2022-08-02T04:24:38;4.75;;;4.57;;
41099;SDS011;26844;53.686;-6.346;2022-08-02T04:27:05;23.77;;;22.52;;
41099;SDS011;26844;53.686;-6.346;2022-08-02T04:29:31;138.75;;;131.43;;
41099;SDS011;26844;53.686;-6.346;2022-08-02T04:31:56;51.28;;;48.88;;
41099;SDS011;26844;53.686;-6.346;2022-08-02T04:34:22;31.67;;;30.17;;
41099;SDS011;26844;53.686;-6.346;2022-08-02T04:36:47;3.65;;;3.05;;
41099;SDS011;26844;53.686;-6.346;2022-08-02T04:39:13;7.57;;;7.10;;
41099;SDS011;26844;53.686;-6.346;2022-08-02T04:41:39;11.80;;;11.07;;
41099;SDS011;26844;53.686;-6.346;2022-08-02T04:44:05;14.32;;;13.73;;
41099;SDS011;26844;53.686;-6.346;2022-08-02T04:46:30;22.77;;;21.67;;
41099;SDS011;26844;53.686;-6.346;2022-08-02T04:48:56;19.60;;;18.52;;
41099;SDS011;26844;53.686;-6.346;2022-08-02T04:51:21;37.35;;;35.42;;
41099;SDS011;26844;53.686;-6.346;2022-08-02T04:53:46;30.30;;;28.92;;
41099;SDS011;26844;53.686;-6.346;2022-08-02T04:56:12;21.83;;;20.65;;
41099;SDS011;26844;53.686;-6.346;2022-08-02T04:58:37;5.65;;;5.35;;
41099;SDS011;26844;53.686;-6.346;2022-08-02T05:01:02;33.67;;;31.73;;
41099;SDS011;26844;53.686;-6.346;2022-08-02T05:03:27;48.60;;;45.72;;
41099;SDS011;26844;53.686;-6.346;2022-08-02T05:05:52;29.63;;;28.20;;
41099;SDS011;26844;53.686;-6.346;2022-08-02T05:08:18;26.73;;;25.27;;
41099;SDS011;26844;53.686;-6.346;2022-08-02T05:10:43;38.55;;;36.33;;
41099;SDS011;26844;53.686;-6.346;2022-08-02T05:13:08;100.53;;;94.55;;
41099;SDS011;26844;53.686;-6.346;2022-08-02T05:15:34;25.95;;;24.73;;
41099;SDS011;26844;53.686;-6.346;2022-08-02T05:17:59;18.83;;;17.70;;
41099;SDS011;26844;53.686;-6.346;2022-08-02T05:20:24;67.10;;;63.92;;
41099;SDS011;26844;53.686;-6.346;2022-08-02T05:22:49;49.60;;;47.00;;
41099;SDS011;26844;53.686;-6.346;2022-08-02T05:25:15;31.17;;;29.60;;
41099;SDS011;26844;53.686;-6.346;2022-08-02T05:27:40;106.50;;;101.25;;
41099;SDS011;26844;53.686;-6.346;2022-08-02T05:30:05;50.30;;;47.97;;
41099;SDS011;26844;53.686;-6.346;2022-08-02T05:32:31;74.43;;;70.90;;
41099;SDS011;26844;53.686;-6.346;2022-08-02T05:34:56;15.23;;;14.27;;
41099;SDS011;26844;53.686;-6.346;2022-08-02T05:37:21;104.68;;;99.57;;
41099;SDS011;26844;53.686;-6.346;2022-08-02T05:39:47;80.90;;;77.03;;
41099;SDS011;26844;53.686;-6.346;2022-08-02T05:42:12;81.30;;;77.32;;
41099;SDS011;26844;53.686;-6.346;2022-08-02T05:44:37;74.47;;;70.28;;
41099;SDS011;26844;53.686;-6.346;2022-08-02T05:47:02;48.17;;;45.83;;
41099;SDS011;26844;53.686;-6.346;2022-08-02T05:49:28;71.97;;;68.38;;
41099;SDS011;26844;53.686;-6.346;2022-08-02T05:52:03;156.68;;;148.75;;
41099;SDS011;26844;53.686;-6.346;2022-08-02T05:57:10;141.27;;;134.25;;
41099;SDS011;26844;53.686;-6.346;2022-08-02T06:02:28;36.63;;;34.58;;
41099;SDS011;26844;53.686;-6.346;2022-08-02T06:04:56;90.18;;;85.50;;
41099;SDS011;26844;53.686;-6.346;2022-08-02T06:07:23;83.47;;;79.35;;
41099;SDS011;26844;53.686;-6.346;2022-08-02T06:09:48;97.20;;;91.97;;
41099;SDS011;26844;53.686;-6.346;2022-08-02T06:12:15;23.58;;;21.55;;
41099;SDS011;26844;53.686;-6.346;2022-08-02T06:14:40;77.40;;;73.65;;
41099;SDS011;26844;53.686;-6.346;2022-08-02T06:17:06;27.63;;;26.15;;
41099;SDS011;26844;53.686;-6.346;2022-08-02T06:19:31;16.55;;;15.75;;
41099;SDS011;26844;53.686;-6.346;2022-08-02T06:21:57;76.63;;;72.68;;
41099;SDS011;26844;53.686;-6.346;2022-08-02T06:24:39;106.05;;;100.80;;
41099;SDS011;26844;53.686;-6.346;2022-08-02T06:27:04;112.03;;;106.07;;
41099;SDS011;26844;53.686;-6.346;2022-08-02T06:29:30;142.27;;;135.07;;
41099;SDS011;26844;53.686;-6.346;2022-08-02T06:31:56;83.28;;;78.72;;
41099;SDS011;26844;53.686;-6.346;2022-08-02T06:34:22;70.35;;;67.05;;
41099;SDS011;26844;53.686;-6.346;2022-08-02T06:36:59;76.57;;;73.03;;
41099;SDS011;26844;53.686;-6.346;2022-08-02T06:39:42;41.63;;;39.78;;
41099;SDS011;26844;53.686;-6.346;2022-08-02T06:42:10;98.38;;;93.72;;
41099;SDS011;26844;53.686;-6.346;2022-08-02T06:44:36;17.80;;;17.00;;
41099;SDS011;26844;53.686;-6.346;2022-08-02T06:47:02;18.20;;;17.35;;
41099;SDS011;26844;53.686;-6.346;2022-08-02T06:49:28;38.42;;;36.55;;
41099;SDS011;26844;53.686;-6.346;2022-08-02T06:51:53;16.15;;;15.40;;
41099;SDS011;26844;53.686;-6.346;2022-08-02T06:54:18;24.30;;;23.17;;
41099;SDS011;26844;53.686;-6.346;2022-08-02T06:56:45;13.57;;;12.73;;
41099;SDS011;26844;53.686;-6.346;2022-08-02T06:59:11;63.08;;;60.05;;
41099;SDS011;26844;53.686;-6.346;2022-08-02T07:01:36;42.80;;;40.95;;
41099;SDS011;26844;53.686;-6.346;2022-08-02T07:04:02;118.05;;;111.82;;
41099;SDS011;26844;53.686;-6.346;2022-08-02T07:06:27;101.90;;;97.10;;
41099;SDS011;26844;53.686;-6.346;2022-08-02T07:08:53;43.78;;;41.53;;
41099;SDS011;26844;53.686;-6.346;2022-08-02T07:11:18;14.60;;;13.77;;
41099;SDS011;26844;53.686;-6.346;2022-08-02T07:13:43;10.20;;;9.80;;
41099;SDS011;26844;53.686;-6.346;2022-08-02T07:16:09;8.60;;;8.18;;
41099;SDS011;26844;53.686;-6.346;2022-08-02T07:18:34;6.15;;;5.88;;
41099;SDS011;26844;53.686;-6.346;2022-08-02T07:21:00;3.33;;;3.20;;
41099;SDS011;26844;53.686;-6.346;2022-08-02T07:23:25;16.30;;;15.25;;
41099;SDS011;26844;53.686;-6.346;2022-08-02T07:25:50;4.53;;;4.13;;
41099;SDS011;26844;53.686;-6.346;2022-08-02T07:28:15;2.67;;;2.58;;
41099;SDS011;26844;53.686;-6.346;2022-08-02T07:30:41;17.35;;;16.45;;
41099;SDS011;26844;53.686;-6.346;2022-08-02T07:33:06;3.55;;;3.42;;
41099;SDS011;26844;53.686;-6.346;2022-08-02T07:35:32;6.10;;;5.55;;
41099;SDS011;26844;53.686;-6.346;2022-08-02T07:37:57;2.38;;;2.28;;
41099;SDS011;26844;53.686;-6.346;2022-08-02T07:40:23;1.98;;;1.90;;
41099;SDS011;26844;53.686;-6.346;2022-08-02T07:42:49;31.80;;;29.95;;
41099;SDS011;26844;53.686;-6.346;2022-08-02T07:45:16;1.92;;;1.83;;
41099;SDS011;26844;53.686;-6.346;2022-08-02T07:47:41;5.18;;;4.90;;
41099;SDS011;26844;53.686;-6.346;2022-08-02T07:50:08;57.63;;;54.10;;
41099;SDS011;26844;53.686;-6.346;2022-08-02T07:52:34;6.10;;;5.80;;
41099;SDS011;26844;53.686;-6.346;2022-08-02T07:55:00;14.38;;;13.43;;
41099;SDS011;26844;53.686;-6.346;2022-08-02T07:57:25;16.15;;;15.07;;
41099;SDS011;26844;53.686;-6.346;2022-08-02T07:59:50;16.88;;;15.98;;
41099;SDS011;26844;53.686;-6.346;2022-08-02T08:02:15;13.32;;;12.55;;
41099;SDS011;26844;53.686;-6.346;2022-08-02T08:04:41;5.30;;;4.97;;
41099;SDS011;26844;53.686;-6.346;2022-08-02T08:07:06;14.57;;;13.82;;
41099;SDS011;26844;53.686;-6.346;2022-08-02T08:09:34;4.88;;;2.47;;
41099;SDS011;26844;53.686;-6.346;2022-08-02T08:12:03;45.00;;;42.28;;
41099;SDS011;26844;53.686;-6.346;2022-08-02T08:14:29;2.03;;;1.80;;
41099;SDS011;26844;53.686;-6.346;2022-08-02T08:16:54;8.93;;;8.45;;
41099;SDS011;26844;53.686;-6.346;2022-08-02T08:19:19;14.23;;;13.38;;
41099;SDS011;26844;53.686;-6.346;2022-08-02T08:21:44;10.90;;;10.05;;
41099;SDS011;26844;53.686;-6.346;2022-08-02T08:24:10;14.70;;;13.88;;
41099;SDS011;26844;53.686;-6.346;2022-08-02T08:26:35;6.55;;;6.15;;
41099;SDS011;26844;53.686;-6.346;2022-08-02T08:29:00;8.30;;;7.70;;
41099;SDS011;26844;53.686;-6.346;2022-08-02T08:31:26;10.80;;;10.30;;
41099;SDS011;26844;53.686;-6.346;2022-08-02T08:33:51;13.25;;;12.40;;
41099;SDS011;26844;53.686;-6.346;2022-08-02T08:36:16;14.07;;;13.30;;
41099;SDS011;26844;53.686;-6.346;2022-08-02T08:38:41;7.15;;;6.85;;
41099;SDS011;26844;53.686;-6.346;2022-08-02T08:41:08;17.73;;;16.83;;
41099;SDS011;26844;53.686;-6.346;2022-08-02T08:43:33;23.45;;;22.20;;
41099;SDS011;26844;53.686;-6.346;2022-08-02T08:45:58;8.60;;;8.20;;
41099;SDS011;26844;53.686;-6.346;2022-08-02T08:48:24;15.00;;;14.13;;
41099;SDS011;26844;53.686;-6.346;2022-08-02T08:50:55;11.82;;;5.20;;
41099;SDS011;26844;53.686;-6.346;2022-08-02T08:53:21;22.58;;;21.45;;
41099;SDS011;26844;53.686;-6.346;2022-08-02T08:55:47;6.63;;;6.05;;
41099;SDS011;26844;53.686;-6.346;2022-08-02T08:58:13;2.78;;;2.67;;
41099;SDS011;26844;53.686;-6.346;2022-08-02T09:00:38;11.23;;;10.65;;
41099;SDS011;26844;53.686;-6.346;2022-08-02T09:03:05;20.05;;;18.95;;
41099;SDS011;26844;53.686;-6.346;2022-08-02T09:05:38;4.28;;;2.55;;
41099;SDS011;26844;53.686;-6.346;2022-08-02T09:08:04;6.53;;;6.20;;
41099;SDS011;26844;53.686;-6.346;2022-08-02T09:13:05;6.82;;;6.38;;
41099;SDS011;26844;53.686;-6.346;2022-08-02T09:15:31;18.25;;;17.20;;
41099;SDS011;26844;53.686;-6.346;2022-08-02T09:17:56;25.00;;;22.80;;
41099;SDS011;26844;53.686;-6.346;2022-08-02T09:20:22;8.18;;;7.55;;
41099;SDS011;26844;53.686;-6.346;2022-08-02T09:23:03;7.82;;;7.50;;
41099;SDS011;26844;53.686;-6.346;2022-08-02T09:25:29;6.13;;;5.50;;
41099;SDS011;26844;53.686;-6.346;2022-08-02T09:27:55;10.68;;;9.00;;
41099;SDS011;26844;53.686;-6.346;2022-08-02T09:30:20;61.67;;;57.05;;
41099;SDS011;26844;53.686;-6.346;2022-08-02T09:32:46;30.77;;;27.90;;
41099;SDS011;26844;53.686;-6.346;2022-08-02T09:35:12;31.98;;;29.73;;
41099;SDS011;26844;53.686;-6.346;2022-08-02T09:37:39;25.50;;;23.90;;
41099;SDS011;26844;53.686;-6.346;2022-08-02T09:40:04;4.28;;;0.85;;
41099;SDS011;26844;53.686;-6.346;2022-08-02T09:42:30;30.60;;;28.37;;
41099;SDS011;26844;53.686;-6.346;2022-08-02T09:44:56;67.80;;;63.55;;
41099;SDS011;26844;53.686;-6.346;2022-08-02T09:47:23;6.72;;;4.47;;
41099;SDS011;26844;53.686;-6.346;2022-08-02T09:49:48;3.45;;;1.80;;
41099;SDS011;26844;53.686;-6.346;2022-08-02T09:52:14;3.25;;;3.05;;
41099;SDS011;26844;53.686;-6.346;2022-08-02T09:54:39;4.50;;;1.05;;
41099;SDS011;26844;53.686;-6.346;2022-08-02T09:57:05;11.95;;;10.82;;
41099;SDS011;26844;53.686;-6.346;2022-08-02T09:59:31;4.10;;;1.20;;
41099;SDS011;26844;53.686;-6.346;2022-08-02T10:01:57;14.75;;;13.88;;
41099;SDS011;26844;53.686;-6.346;2022-08-02T10:04:23;3.95;;;0.88;;
41099;SDS011;26844;53.686;-6.346;2022-08-02T10:06:49;6.20;;;1.73;;
41099;SDS011;26844;53.686;-6.346;2022-08-02T10:09:15;6.60;;;5.03;;
41099;SDS011;26844;53.686;-6.346;2022-08-02T10:11:40;4.47;;;3.92;;
41099;SDS011;26844;53.686;-6.346;2022-08-02T10:14:07;3.97;;;1.58;;
41099;SDS011;26844;53.686;-6.346;2022-08-02T10:16:33;10.10;;;8.75;;
41099;SDS011;26844;53.686;-6.346;2022-08-02T10:18:59;7.63;;;6.78;;
41099;SDS011;26844;53.686;-6.346;2022-08-02T10:24:06;5.15;;;2.65;;
41099;SDS011;26844;53.686;-6.346;2022-08-02T10:26:32;9.73;;;3.03;;
41099;SDS011;26844;53.686;-6.346;2022-08-02T10:28:58;11.25;;;10.07;;
41099;SDS011;26844;53.686;-6.346;2022-08-02T10:31:24;4.78;;;1.60;;
41099;SDS011;26844;53.686;-6.346;2022-08-02T10:33:51;2.63;;;1.55;;
41099;SDS011;26844;53.686;-6.346;2022-08-02T10:36:18;4.78;;;1.70;;
41099;SDS011;26844;53.686;-6.346;2022-08-02T10:38:43;12.98;;;5.68;;
41099;SDS011;26844;53.686;-6.346;2022-08-02T10:41:10;5.57;;;2.80;;
41099;SDS011;26844;53.686;-6.346;2022-08-02T10:51:25;2.83;;;0.63;;
41099;SDS011;26844;53.686;-6.346;2022-08-02T10:54:10;3.97;;;0.60;;
41099;SDS011;26844;53.686;-6.346;2022-08-02T10:56:44;8.73;;;0.90;;
41099;SDS011;26844;53.686;-6.346;2022-08-02T11:01:47;6.72;;;1.02;;
41099;SDS011;26844;53.686;-6.346;2022-08-02T11:04:12;2.20;;;0.85;;
41099;SDS011;26844;53.686;-6.346;2022-08-02T11:07:05;4.68;;;1.73;;
41099;SDS011;26844;53.686;-6.346;2022-08-02T11:09:29;7.75;;;6.38;;
41099;SDS011;26844;53.686;-6.346;2022-08-02T11:12:15;11.20;;;1.75;;
41099;SDS011;26844;53.686;-6.346;2022-08-02T11:14:44;4.35;;;1.13;;
41099;SDS011;26844;53.686;-6.346;2022-08-02T11:17:16;8.73;;;2.35;;
41099;SDS011;26844;53.686;-6.346;2022-08-02T11:22:26;17.70;;;3.08;;
41099;SDS011;26844;53.686;-6.346;2022-08-02T11:24:51;10.43;;;2.08;;
41099;SDS011;26844;53.686;-6.346;2022-08-02T11:27:17;8.02;;;2.10;;
41099;SDS011;26844;53.686;-6.346;2022-08-02T11:29:43;7.43;;;6.70;;
41099;SDS011;26844;53.686;-6.346;2022-08-02T11:32:19;4.93;;;2.60;;
41099;SDS011;26844;53.686;-6.346;2022-08-02T11:34:46;5.35;;;1.42;;
41099;SDS011;26844;53.686;-6.346;2022-08-02T11:37:11;12.20;;;10.98;;
41099;SDS011;26844;53.686;-6.346;2022-08-02T11:39:39;11.02;;;5.70;;
41099;SDS011;26844;53.686;-6.346;2022-08-02T11:42:14;7.45;;;6.70;;
41099;SDS011;26844;53.686;-6.346;2022-08-02T11:44:39;7.50;;;2.42;;
41099;SDS011;26844;53.686;-6.346;2022-08-02T11:47:05;7.60;;;4.95;;
41099;SDS011;26844;53.686;-6.346;2022-08-02T11:49:31;5.83;;;1.80;;
41099;SDS011;26844;53.686;-6.346;2022-08-02T11:52:00;3.97;;;1.88;;
41099;SDS011;26844;53.686;-6.346;2022-08-02T11:59:41;9.88;;;3.60;;
41099;SDS011;26844;53.686;-6.346;2022-08-02T12:02:07;3.35;;;2.42;;
41099;SDS011;26844;53.686;-6.346;2022-08-02T12:04:33;8.65;;;2.38;;
41099;SDS011;26844;53.686;-6.346;2022-08-02T12:06:58;7.82;;;2.00;;
41099;SDS011;26844;53.686;-6.346;2022-08-02T12:09:28;6.15;;;3.08;;
41099;SDS011;26844;53.686;-6.346;2022-08-02T12:11:54;4.47;;;1.80;;
41099;SDS011;26844;53.686;-6.346;2022-08-02T12:14:19;4.65;;;1.88;;
41099;SDS011;26844;53.686;-6.346;2022-08-02T12:16:45;6.32;;;1.50;;
41099;SDS011;26844;53.686;-6.346;2022-08-02T12:19:28;5.13;;;3.38;;
41099;SDS011;26844;53.686;-6.346;2022-08-02T12:24:32;9.10;;;4.97;;
41099;SDS011;26844;53.686;-6.346;2022-08-02T12:26:57;28.70;;;26.00;;
41099;SDS011;26844;53.686;-6.346;2022-08-02T12:29:32;9.10;;;5.22;;
41099;SDS011;26844;53.686;-6.346;2022-08-02T12:31:58;7.13;;;2.83;;
41099;SDS011;26844;53.686;-6.346;2022-08-02T12:34:24;10.07;;;6.85;;
41099;SDS011;26844;53.686;-6.346;2022-08-02T12:36:56;9.68;;;3.70;;
41099;SDS011;26844;53.686;-6.346;2022-08-02T12:39:31;3.47;;;1.33;;
41099;SDS011;26844;53.686;-6.346;2022-08-02T12:41:56;8.25;;;5.65;;
41099;SDS011;26844;53.686;-6.346;2022-08-02T12:44:22;8.30;;;1.92;;
41099;SDS011;26844;53.686;-6.346;2022-08-02T12:46:56;7.00;;;6.22;;
41099;SDS011;26844;53.686;-6.346;2022-08-02T12:49:22;2.35;;;1.00;;
41099;SDS011;26844;53.686;-6.346;2022-08-02T12:51:47;2.15;;;0.73;;
41099;SDS011;26844;53.686;-6.346;2022-08-02T12:54:13;6.55;;;2.08;;
41099;SDS011;26844;53.686;-6.346;2022-08-02T12:56:40;5.97;;;4.95;;
41099;SDS011;26844;53.686;-6.346;2022-08-02T12:59:05;3.67;;;0.85;;
41099;SDS011;26844;53.686;-6.346;2022-08-02T13:01:31;3.10;;;1.55;;
41099;SDS011;26844;53.686;-6.346;2022-08-02T13:03:56;3.17;;;2.55;;
41099;SDS011;26844;53.686;-6.346;2022-08-02T13:06:22;7.03;;;6.07;;
41099;SDS011;26844;53.686;-6.346;2022-08-02T13:08:48;2.47;;;0.95;;
41099;SDS011;26844;53.686;-6.346;2022-08-02T13:11:13;3.50;;;1.15;;
41099;SDS011;26844;53.686;-6.346;2022-08-02T13:13:39;3.92;;;1.02;;
41099;SDS011;26844;53.686;-6.346;2022-08-02T13:16:04;3.90;;;1.23;;
41099;SDS011;26844;53.686;-6.346;2022-08-02T13:18:30;2.03;;;0.70;;
41099;SDS011;26844;53.686;-6.346;2022-08-02T13:20:55;2.42;;;1.27;;
41099;SDS011;26844;53.686;-6.346;2022-08-02T13:23:20;7.93;;;6.38;;
41099;SDS011;26844;53.686;-6.346;2022-08-02T13:25:45;3.88;;;1.48;;
41099;SDS011;26844;53.686;-6.346;2022-08-02T13:28:11;4.40;;;1.58;;
41099;SDS011;26844;53.686;-6.346;2022-08-02T13:30:36;4.35;;;1.10;;
41099;SDS011;26844;53.686;-6.346;2022-08-02T13:33:02;3.00;;;2.10;;
41099;SDS011;26844;53.686;-6.346;2022-08-02T13:35:27;4.40;;;4.10;;
41099;SDS011;26844;53.686;-6.346;2022-08-02T13:37:53;2.20;;;1.92;;
41099;SDS011;26844;53.686;-6.346;2022-08-02T13:40:18;3.75;;;1.00;;
41099;SDS011;26844;53.686;-6.346;2022-08-02T13:42:43;6.93;;;1.45;;
41099;SDS011;26844;53.686;-6.346;2022-08-02T13:45:09;1.80;;;1.60;;
41099;SDS011;26844;53.686;-6.346;2022-08-02T13:47:36;6.18;;;3.70;;
41099;SDS011;26844;53.686;-6.346;2022-08-02T13:50:02;2.08;;;1.88;;
41099;SDS011;26844;53.686;-6.346;2022-08-02T13:52:27;3.10;;;1.67;;
41099;SDS011;26844;53.686;-6.346;2022-08-02T13:54:53;2.15;;;1.95;;
41099;SDS011;26844;53.686;-6.346;2022-08-02T13:57:18;8.23;;;4.38;;
41099;SDS011;26844;53.686;-6.346;2022-08-02T13:59:43;9.90;;;6.43;;
41099;SDS011;26844;53.686;-6.346;2022-08-02T14:02:08;1.30;;;1.20;;
41099;SDS011;26844;53.686;-6.346;2022-08-02T14:04:33;4.38;;;1.25;;
41099;SDS011;26844;53.686;-6.346;2022-08-02T14:07:00;2.33;;;1.30;;
41099;SDS011;26844;53.686;-6.346;2022-08-02T14:09:25;17.98;;;16.67;;
41099;SDS011;26844;53.686;-6.346;2022-08-02T14:11:50;13.15;;;8.52;;
41099;SDS011;26844;53.686;-6.346;2022-08-02T14:14:16;7.40;;;6.78;;
41099;SDS011;26844;53.686;-6.346;2022-08-02T14:16:41;4.65;;;4.00;;
41099;SDS011;26844;53.686;-6.346;2022-08-02T14:19:06;5.50;;;2.25;;
41099;SDS011;26844;53.686;-6.346;2022-08-02T14:21:33;4.03;;;2.20;;
41099;SDS011;26844;53.686;-6.346;2022-08-02T14:23:58;2.58;;;1.20;;
41099;SDS011;26844;53.686;-6.346;2022-08-02T14:26:23;5.78;;;4.93;;
41099;SDS011;26844;53.686;-6.346;2022-08-02T14:28:48;7.75;;;5.75;;
41099;SDS011;26844;53.686;-6.346;2022-08-02T14:31:14;7.10;;;2.72;;
41099;SDS011;26844;53.686;-6.346;2022-08-02T14:33:39;6.85;;;2.72;;
41099;SDS011;26844;53.686;-6.346;2022-08-02T14:36:04;11.82;;;2.72;;
41099;SDS011;26844;53.686;-6.346;2022-08-02T14:38:30;7.38;;;5.13;;
41099;SDS011;26844;53.686;-6.346;2022-08-02T14:40:56;1.23;;;0.65;;
41099;SDS011;26844;53.686;-6.346;2022-08-02T14:43:21;2.25;;;0.90;;
41099;SDS011;26844;53.686;-6.346;2022-08-02T14:46:05;4.60;;;2.92;;
41099;SDS011;26844;53.686;-6.346;2022-08-02T14:48:31;4.32;;;4.00;;
41099;SDS011;26844;53.686;-6.346;2022-08-02T14:50:56;15.60;;;3.17;;
41099;SDS011;26844;53.686;-6.346;2022-08-02T14:53:21;13.30;;;11.93;;
41099;SDS011;26844;53.686;-6.346;2022-08-02T14:55:46;14.93;;;9.10;;